Trout Creek, Michigan
Current Conditions -  °F | °C
As of 4:15 PM on Saturday 22 Nov 2014 (Local Time) from KLNL Reporting Station
Overcast Overcast  
Wind Chill: 29°   Ceiling: 800
Heat Index: 34°   Visibility: 7mi
Dew Point: 31°   Wind: 6mph
Humidity: 90%   Direction: 230°SW
Pressure: 29.69"   Gusts: NA
Location:  46.48°N, 89.01°W
Report Text: KLNL 222115Z AUTO 23005KT 7SM OVC008 01/00 A2969 RMK AO2 T00121003
Loading
Personal Weather Stations






























Interactive Weather Map New forecast layout! Learn more

10-Day Weather Forecast

Advertisements
Track Severe Weather on mobile